sensor_id;sensor_type;location;lat;lon;timestamp;P1;durP1;ratioP1;P2;durP2;ratioP2
15285;SDS011;7744;52.172;10.668;2023-02-01T00:01:56;13.07;;;2.53;;
15285;SDS011;7744;52.172;10.668;2023-02-01T00:04:22;11.53;;;2.37;;
15285;SDS011;7744;52.172;10.668;2023-02-01T00:06:48;11.07;;;2.63;;
15285;SDS011;7744;52.172;10.668;2023-02-01T00:09:13;13.50;;;2.57;;
15285;SDS011;7744;52.172;10.668;2023-02-01T00:11:39;13.53;;;3.57;;
15285;SDS011;7744;52.172;10.668;2023-02-01T00:14:05;14.57;;;2.40;;
15285;SDS011;7744;52.172;10.668;2023-02-01T00:16:31;10.73;;;2.70;;
15285;SDS011;7744;52.172;10.668;2023-02-01T00:19:30;11.47;;;2.37;;
15285;SDS011;7744;52.172;10.668;2023-02-01T00:21:48;8.27;;;1.90;;
15285;SDS011;7744;52.172;10.668;2023-02-01T00:24:14;10.57;;;2.73;;
15285;SDS011;7744;52.172;10.668;2023-02-01T00:26:41;13.88;;;3.47;;
15285;SDS011;7744;52.172;10.668;2023-02-01T00:29:26;10.37;;;2.70;;
15285;SDS011;7744;52.172;10.668;2023-02-01T00:31:52;11.50;;;3.30;;
15285;SDS011;7744;52.172;10.668;2023-02-01T00:34:17;15.20;;;2.57;;
15285;SDS011;7744;52.172;10.668;2023-02-01T00:36:43;15.30;;;3.65;;
15285;SDS011;7744;52.172;10.668;2023-02-01T00:39:10;15.20;;;2.70;;
15285;SDS011;7744;52.172;10.668;2023-02-01T00:41:36;10.50;;;2.60;;
15285;SDS011;7744;52.172;10.668;2023-02-01T00:44:02;8.20;;;2.43;;
15285;SDS011;7744;52.172;10.668;2023-02-01T00:46:28;14.53;;;3.33;;
15285;SDS011;7744;52.172;10.668;2023-02-01T00:48:54;10.60;;;2.50;;
15285;SDS011;7744;52.172;10.668;2023-02-01T00:51:20;13.23;;;3.17;;
15285;SDS011;7744;52.172;10.668;2023-02-01T00:53:48;7.17;;;2.50;;
15285;SDS011;7744;52.172;10.668;2023-02-01T00:56:14;13.67;;;2.80;;
15285;SDS011;7744;52.172;10.668;2023-02-01T00:58:40;15.10;;;2.80;;
15285;SDS011;7744;52.172;10.668;2023-02-01T01:01:39;11.50;;;2.83;;
15285;SDS011;7744;52.172;10.668;2023-02-01T01:03:59;10.37;;;2.57;;
15285;SDS011;7744;52.172;10.668;2023-02-01T01:06:26;17.27;;;3.00;;
15285;SDS011;7744;52.172;10.668;2023-02-01T01:08:54;11.63;;;2.47;;
15285;SDS011;7744;52.172;10.668;2023-02-01T01:11:22;14.00;;;3.08;;
15285;SDS011;7744;52.172;10.668;2023-02-01T01:13:50;14.83;;;2.90;;
15285;SDS011;7744;52.172;10.668;2023-02-01T01:16:17;15.47;;;2.97;;
15285;SDS011;7744;52.172;10.668;2023-02-01T01:18:43;10.67;;;2.80;;
15285;SDS011;7744;52.172;10.668;2023-02-01T01:21:09;12.27;;;2.87;;
15285;SDS011;7744;52.172;10.668;2023-02-01T01:23:37;14.97;;;3.60;;
15285;SDS011;7744;52.172;10.668;2023-02-01T01:26:06;13.80;;;2.93;;
15285;SDS011;7744;52.172;10.668;2023-02-01T01:28:33;14.20;;;3.00;;
15285;SDS011;7744;52.172;10.668;2023-02-01T01:30:59;12.40;;;3.00;;
15285;SDS011;7744;52.172;10.668;2023-02-01T01:33:24;16.85;;;4.35;;
15285;SDS011;7744;52.172;10.668;2023-02-01T01:35:50;14.10;;;3.37;;
15285;SDS011;7744;52.172;10.668;2023-02-01T01:38:15;16.67;;;4.70;;
15285;SDS011;7744;52.172;10.668;2023-02-01T01:40:44;12.03;;;3.50;;
15285;SDS011;7744;52.172;10.668;2023-02-01T01:43:14;14.33;;;2.90;;
15285;SDS011;7744;52.172;10.668;2023-02-01T01:45:41;15.10;;;4.20;;
15285;SDS011;7744;52.172;10.668;2023-02-01T01:48:08;11.80;;;3.50;;
15285;SDS011;7744;52.172;10.668;2023-02-01T01:50:42;20.03;;;4.87;;
15285;SDS011;7744;52.172;10.668;2023-02-01T01:53:13;15.13;;;3.93;;
15285;SDS011;7744;52.172;10.668;2023-02-01T01:55:44;14.43;;;4.45;;
15285;SDS011;7744;52.172;10.668;2023-02-01T01:58:14;16.80;;;3.80;;
15285;SDS011;7744;52.172;10.668;2023-02-01T02:00:43;16.33;;;3.13;;
15285;SDS011;7744;52.172;10.668;2023-02-01T02:06:23;19.30;;;3.93;;
15285;SDS011;7744;52.172;10.668;2023-02-01T02:08:56;13.77;;;3.27;;
15285;SDS011;7744;52.172;10.668;2023-02-01T02:11:21;14.63;;;3.20;;
15285;SDS011;7744;52.172;10.668;2023-02-01T02:13:48;14.97;;;4.20;;
15285;SDS011;7744;52.172;10.668;2023-02-01T02:24:52;16.67;;;3.47;;
15285;SDS011;7744;52.172;10.668;2023-02-01T02:36:19;14.70;;;4.40;;
15285;SDS011;7744;52.172;10.668;2023-02-01T02:39:08;18.40;;;4.30;;
15285;SDS011;7744;52.172;10.668;2023-02-01T02:42:00;18.20;;;4.70;;
15285;SDS011;7744;52.172;10.668;2023-02-01T02:48:04;18.20;;;3.87;;
15285;SDS011;7744;52.172;10.668;2023-02-01T02:50:33;12.93;;;4.23;;
15285;SDS011;7744;52.172;10.668;2023-02-01T02:56:43;13.73;;;3.85;;
15285;SDS011;7744;52.172;10.668;2023-02-01T02:59:28;17.33;;;3.53;;
15285;SDS011;7744;52.172;10.668;2023-02-01T03:02:14;14.53;;;3.83;;
15285;SDS011;7744;52.172;10.668;2023-02-01T03:04:59;13.23;;;2.97;;
15285;SDS011;7744;52.172;10.668;2023-02-01T03:12:49;17.50;;;4.20;;
15285;SDS011;7744;52.172;10.668;2023-02-01T03:15:26;13.40;;;3.30;;
15285;SDS011;7744;52.172;10.668;2023-02-01T03:18:00;12.43;;;2.60;;
15285;SDS011;7744;52.172;10.668;2023-02-01T03:20:27;13.53;;;2.87;;
15285;SDS011;7744;52.172;10.668;2023-02-01T03:22:54;13.47;;;3.23;;
15285;SDS011;7744;52.172;10.668;2023-02-01T03:25:25;14.73;;;3.43;;
15285;SDS011;7744;52.172;10.668;2023-02-01T03:27:57;12.73;;;3.63;;
15285;SDS011;7744;52.172;10.668;2023-02-01T03:30:31;18.23;;;3.43;;
15285;SDS011;7744;52.172;10.668;2023-02-01T03:33:01;12.27;;;3.30;;
15285;SDS011;7744;52.172;10.668;2023-02-01T03:35:39;14.37;;;3.43;;
15285;SDS011;7744;52.172;10.668;2023-02-01T03:38:23;13.87;;;3.33;;
15285;SDS011;7744;52.172;10.668;2023-02-01T03:41:40;18.83;;;3.70;;
15285;SDS011;7744;52.172;10.668;2023-02-01T03:43:54;12.43;;;2.93;;
15285;SDS011;7744;52.172;10.668;2023-02-01T03:46:33;18.40;;;3.23;;
15285;SDS011;7744;52.172;10.668;2023-02-01T03:49:04;12.13;;;3.53;;
15285;SDS011;7744;52.172;10.668;2023-02-01T03:51:33;17.70;;;4.13;;
15285;SDS011;7744;52.172;10.668;2023-02-01T03:54:01;16.47;;;3.77;;
15285;SDS011;7744;52.172;10.668;2023-02-01T03:56:28;9.50;;;3.00;;
15285;SDS011;7744;52.172;10.668;2023-02-01T03:58:55;13.23;;;3.43;;
15285;SDS011;7744;52.172;10.668;2023-02-01T04:01:24;13.23;;;2.90;;
15285;SDS011;7744;52.172;10.668;2023-02-01T04:03:51;13.73;;;3.67;;
15285;SDS011;7744;52.172;10.668;2023-02-01T04:06:17;10.30;;;3.00;;
15285;SDS011;7744;52.172;10.668;2023-02-01T04:08:42;14.23;;;3.10;;
15285;SDS011;7744;52.172;10.668;2023-02-01T04:11:08;11.17;;;3.40;;
15285;SDS011;7744;52.172;10.668;2023-02-01T04:13:33;12.93;;;3.87;;
15285;SDS011;7744;52.172;10.668;2023-02-01T04:15:59;10.03;;;3.10;;
15285;SDS011;7744;52.172;10.668;2023-02-01T04:18:24;16.03;;;3.87;;
15285;SDS011;7744;52.172;10.668;2023-02-01T04:20:50;15.50;;;3.70;;
15285;SDS011;7744;52.172;10.668;2023-02-01T04:23:15;16.55;;;4.72;;
15285;SDS011;7744;52.172;10.668;2023-02-01T04:25:41;12.27;;;3.63;;
15285;SDS011;7744;52.172;10.668;2023-02-01T04:28:06;10.73;;;2.93;;
15285;SDS011;7744;52.172;10.668;2023-02-01T04:30:32;14.67;;;4.00;;
15285;SDS011;7744;52.172;10.668;2023-02-01T04:32:58;14.53;;;4.20;;
15285;SDS011;7744;52.172;10.668;2023-02-01T04:35:23;12.80;;;3.43;;
15285;SDS011;7744;52.172;10.668;2023-02-01T04:37:49;15.90;;;4.13;;
15285;SDS011;7744;52.172;10.668;2023-02-01T04:40:14;13.40;;;3.50;;
15285;SDS011;7744;52.172;10.668;2023-02-01T04:42:40;16.23;;;3.60;;
15285;SDS011;7744;52.172;10.668;2023-02-01T04:45:06;13.90;;;3.87;;
15285;SDS011;7744;52.172;10.668;2023-02-01T04:47:32;10.87;;;3.40;;
15285;SDS011;7744;52.172;10.668;2023-02-01T04:49:57;14.27;;;3.40;;
15285;SDS011;7744;52.172;10.668;2023-02-01T04:52:23;14.77;;;3.97;;
15285;SDS011;7744;52.172;10.668;2023-02-01T04:54:48;14.73;;;3.90;;
15285;SDS011;7744;52.172;10.668;2023-02-01T04:57:14;14.83;;;4.63;;
15285;SDS011;7744;52.172;10.668;2023-02-01T04:59:40;20.07;;;5.07;;
15285;SDS011;7744;52.172;10.668;2023-02-01T05:02:05;15.33;;;4.70;;
15285;SDS011;7744;52.172;10.668;2023-02-01T05:04:31;12.00;;;3.57;;
15285;SDS011;7744;52.172;10.668;2023-02-01T05:06:56;14.77;;;4.57;;
15285;SDS011;7744;52.172;10.668;2023-02-01T05:09:22;14.50;;;4.03;;
15285;SDS011;7744;52.172;10.668;2023-02-01T05:11:47;14.90;;;4.03;;
15285;SDS011;7744;52.172;10.668;2023-02-01T05:14:32;9.80;;;4.00;;
15285;SDS011;7744;52.172;10.668;2023-02-01T05:16:57;14.03;;;4.10;;
15285;SDS011;7744;52.172;10.668;2023-02-01T05:19:23;13.83;;;3.77;;
15285;SDS011;7744;52.172;10.668;2023-02-01T05:21:48;15.43;;;4.33;;
15285;SDS011;7744;52.172;10.668;2023-02-01T05:24:14;13.43;;;3.70;;
15285;SDS011;7744;52.172;10.668;2023-02-01T05:26:44;16.57;;;4.73;;
15285;SDS011;7744;52.172;10.668;2023-02-01T05:29:10;11.97;;;3.90;;
15285;SDS011;7744;52.172;10.668;2023-02-01T05:31:37;15.23;;;3.80;;
15285;SDS011;7744;52.172;10.668;2023-02-01T05:34:03;14.83;;;4.00;;
15285;SDS011;7744;52.172;10.668;2023-02-01T05:36:29;13.27;;;3.57;;
15285;SDS011;7744;52.172;10.668;2023-02-01T05:38:54;15.95;;;4.93;;
15285;SDS011;7744;52.172;10.668;2023-02-01T05:41:20;12.57;;;4.07;;
15285;SDS011;7744;52.172;10.668;2023-02-01T05:43:46;13.60;;;4.03;;
15285;SDS011;7744;52.172;10.668;2023-02-01T05:46:11;11.73;;;3.80;;
15285;SDS011;7744;52.172;10.668;2023-02-01T05:48:41;12.07;;;4.33;;
15285;SDS011;7744;52.172;10.668;2023-02-01T05:51:07;12.10;;;3.90;;
15285;SDS011;7744;52.172;10.668;2023-02-01T05:53:33;14.33;;;4.13;;
15285;SDS011;7744;52.172;10.668;2023-02-01T05:55:59;15.40;;;3.93;;
15285;SDS011;7744;52.172;10.668;2023-02-01T05:58:25;15.70;;;5.00;;
15285;SDS011;7744;52.172;10.668;2023-02-01T06:00:51;13.70;;;4.43;;
15285;SDS011;7744;52.172;10.668;2023-02-01T06:03:16;12.23;;;3.87;;
15285;SDS011;7744;52.172;10.668;2023-02-01T06:05:46;15.83;;;4.13;;
15285;SDS011;7744;52.172;10.668;2023-02-01T06:08:12;10.10;;;2.90;;
15285;SDS011;7744;52.172;10.668;2023-02-01T06:10:38;9.43;;;3.53;;
15285;SDS011;7744;52.172;10.668;2023-02-01T06:13:04;9.10;;;3.20;;
15285;SDS011;7744;52.172;10.668;2023-02-01T06:15:29;14.87;;;4.60;;
15285;SDS011;7744;52.172;10.668;2023-02-01T06:17:56;13.00;;;4.37;;
15285;SDS011;7744;52.172;10.668;2023-02-01T06:20:21;14.37;;;5.57;;
15285;SDS011;7744;52.172;10.668;2023-02-01T06:22:47;20.27;;;6.03;;
15285;SDS011;7744;52.172;10.668;2023-02-01T06:25:13;10.23;;;4.77;;
15285;SDS011;7744;52.172;10.668;2023-02-01T06:27:38;16.23;;;4.70;;
15285;SDS011;7744;52.172;10.668;2023-02-01T06:30:04;12.83;;;3.83;;
15285;SDS011;7744;52.172;10.668;2023-02-01T06:32:31;10.57;;;3.60;;
15285;SDS011;7744;52.172;10.668;2023-02-01T06:34:57;12.20;;;3.33;;
15285;SDS011;7744;52.172;10.668;2023-02-01T06:37:24;10.87;;;3.90;;
15285;SDS011;7744;52.172;10.668;2023-02-01T06:39:50;12.47;;;4.00;;
15285;SDS011;7744;52.172;10.668;2023-02-01T06:42:16;10.33;;;3.03;;
15285;SDS011;7744;52.172;10.668;2023-02-01T06:44:42;12.70;;;3.70;;
15285;SDS011;7744;52.172;10.668;2023-02-01T06:47:07;12.87;;;3.67;;
15285;SDS011;7744;52.172;10.668;2023-02-01T06:49:33;10.07;;;3.33;;
15285;SDS011;7744;52.172;10.668;2023-02-01T06:51:59;11.37;;;3.27;;
15285;SDS011;7744;52.172;10.668;2023-02-01T06:54:27;14.30;;;3.60;;
15285;SDS011;7744;52.172;10.668;2023-02-01T06:56:53;12.83;;;3.63;;
15285;SDS011;7744;52.172;10.668;2023-02-01T06:59:19;13.50;;;3.73;;
15285;SDS011;7744;52.172;10.668;2023-02-01T07:01:44;10.03;;;3.33;;
15285;SDS011;7744;52.172;10.668;2023-02-01T07:04:11;10.57;;;2.87;;
15285;SDS011;7744;52.172;10.668;2023-02-01T07:06:37;9.10;;;3.33;;
15285;SDS011;7744;52.172;10.668;2023-02-01T07:09:02;10.47;;;3.63;;
15285;SDS011;7744;52.172;10.668;2023-02-01T07:11:28;10.77;;;3.10;;
15285;SDS011;7744;52.172;10.668;2023-02-01T07:13:54;8.40;;;3.20;;
15285;SDS011;7744;52.172;10.668;2023-02-01T07:16:20;11.07;;;2.67;;
15285;SDS011;7744;52.172;10.668;2023-02-01T07:18:46;8.80;;;3.13;;
15285;SDS011;7744;52.172;10.668;2023-02-01T07:21:14;11.43;;;3.10;;
15285;SDS011;7744;52.172;10.668;2023-02-01T07:23:39;9.73;;;3.00;;
15285;SDS011;7744;52.172;10.668;2023-02-01T07:26:05;10.30;;;3.10;;
15285;SDS011;7744;52.172;10.668;2023-02-01T07:28:33;8.83;;;2.80;;
15285;SDS011;7744;52.172;10.668;2023-02-01T07:31:03;10.73;;;3.43;;
15285;SDS011;7744;52.172;10.668;2023-02-01T07:33:40;8.67;;;3.47;;
15285;SDS011;7744;52.172;10.668;2023-02-01T07:36:06;11.53;;;3.57;;
15285;SDS011;7744;52.172;10.668;2023-02-01T07:38:37;8.30;;;3.50;;
15285;SDS011;7744;52.172;10.668;2023-02-01T07:41:03;7.07;;;3.00;;
15285;SDS011;7744;52.172;10.668;2023-02-01T07:43:30;11.23;;;3.20;;
15285;SDS011;7744;52.172;10.668;2023-02-01T07:45:57;7.67;;;3.47;;
15285;SDS011;7744;52.172;10.668;2023-02-01T07:48:23;9.97;;;3.20;;
15285;SDS011;7744;52.172;10.668;2023-02-01T07:50:56;10.10;;;3.90;;
15285;SDS011;7744;52.172;10.668;2023-02-01T07:53:23;10.10;;;3.23;;
15285;SDS011;7744;52.172;10.668;2023-02-01T07:55:49;8.17;;;3.67;;
15285;SDS011;7744;52.172;10.668;2023-02-01T07:58:14;9.87;;;3.20;;
15285;SDS011;7744;52.172;10.668;2023-02-01T08:00:40;10.53;;;3.33;;
15285;SDS011;7744;52.172;10.668;2023-02-01T08:03:24;10.63;;;3.17;;
15285;SDS011;7744;52.172;10.668;2023-02-01T08:05:53;10.00;;;3.37;;
15285;SDS011;7744;52.172;10.668;2023-02-01T08:08:20;8.40;;;3.40;;
15285;SDS011;7744;52.172;10.668;2023-02-01T08:10:46;8.33;;;3.60;;
15285;SDS011;7744;52.172;10.668;2023-02-01T08:13:12;15.33;;;3.40;;
15285;SDS011;7744;52.172;10.668;2023-02-01T08:15:37;9.23;;;3.90;;
15285;SDS011;7744;52.172;10.668;2023-02-01T08:18:03;11.37;;;3.50;;
15285;SDS011;7744;52.172;10.668;2023-02-01T08:20:29;8.50;;;2.97;;
15285;SDS011;7744;52.172;10.668;2023-02-01T08:22:55;13.53;;;3.33;;
15285;SDS011;7744;52.172;10.668;2023-02-01T08:25:20;10.33;;;3.47;;
15285;SDS011;7744;52.172;10.668;2023-02-01T08:27:46;8.63;;;2.97;;
15285;SDS011;7744;52.172;10.668;2023-02-01T08:30:12;12.93;;;3.30;;
15285;SDS011;7744;52.172;10.668;2023-02-01T08:32:38;9.63;;;2.93;;
15285;SDS011;7744;52.172;10.668;2023-02-01T08:35:04;12.53;;;3.60;;
15285;SDS011;7744;52.172;10.668;2023-02-01T08:37:30;8.33;;;3.07;;
15285;SDS011;7744;52.172;10.668;2023-02-01T08:39:56;10.20;;;2.93;;
15285;SDS011;7744;52.172;10.668;2023-02-01T08:42:22;11.10;;;2.67;;
15285;SDS011;7744;52.172;10.668;2023-02-01T08:45:06;9.97;;;3.00;;
15285;SDS011;7744;52.172;10.668;2023-02-01T08:47:35;12.13;;;3.03;;
15285;SDS011;7744;52.172;10.668;2023-02-01T08:50:00;12.67;;;3.07;;
15285;SDS011;7744;52.172;10.668;2023-02-01T08:52:26;9.07;;;2.90;;
15285;SDS011;7744;52.172;10.668;2023-02-01T08:54:51;11.87;;;2.83;;
15285;SDS011;7744;52.172;10.668;2023-02-01T08:57:17;9.90;;;2.83;;
15285;SDS011;7744;52.172;10.668;2023-02-01T08:59:43;12.07;;;3.67;;
15285;SDS011;7744;52.172;10.668;2023-02-01T09:02:12;13.03;;;4.87;;
15285;SDS011;7744;52.172;10.668;2023-02-01T09:04:40;13.33;;;3.33;;
15285;SDS011;7744;52.172;10.668;2023-02-01T09:07:06;12.30;;;3.57;;
15285;SDS011;7744;52.172;10.668;2023-02-01T09:09:32;14.13;;;3.57;;
15285;SDS011;7744;52.172;10.668;2023-02-01T09:11:58;7.43;;;2.73;;
15285;SDS011;7744;52.172;10.668;2023-02-01T09:14:24;9.43;;;2.80;;
15285;SDS011;7744;52.172;10.668;2023-02-01T09:16:49;17.23;;;4.27;;
15285;SDS011;7744;52.172;10.668;2023-02-01T09:19:15;10.13;;;3.03;;
15285;SDS011;7744;52.172;10.668;2023-02-01T09:21:40;12.67;;;2.73;;
15285;SDS011;7744;52.172;10.668;2023-02-01T09:24:06;16.93;;;2.83;;
15285;SDS011;7744;52.172;10.668;2023-02-01T09:26:33;10.57;;;3.33;;
15285;SDS011;7744;52.172;10.668;2023-02-01T09:28:59;10.30;;;3.17;;
15285;SDS011;7744;52.172;10.668;2023-02-01T09:31:25;11.43;;;2.87;;
15285;SDS011;7744;52.172;10.668;2023-02-01T09:33:50;7.27;;;2.57;;
15285;SDS011;7744;52.172;10.668;2023-02-01T09:36:16;12.23;;;2.87;;
15285;SDS011;7744;52.172;10.668;2023-02-01T09:38:44;10.50;;;2.63;;
15285;SDS011;7744;52.172;10.668;2023-02-01T09:41:17;10.47;;;3.07;;
15285;SDS011;7744;52.172;10.668;2023-02-01T09:43:59;8.03;;;2.47;;
15285;SDS011;7744;52.172;10.668;2023-02-01T09:46:52;9.17;;;2.30;;
15285;SDS011;7744;52.172;10.668;2023-02-01T09:49:22;9.63;;;2.50;;
15285;SDS011;7744;52.172;10.668;2023-02-01T09:51:55;9.37;;;2.80;;
15285;SDS011;7744;52.172;10.668;2023-02-01T09:54:23;8.50;;;2.50;;
15285;SDS011;7744;52.172;10.668;2023-02-01T09:56:55;10.60;;;3.07;;
15285;SDS011;7744;52.172;10.668;2023-02-01T09:59:39;9.60;;;2.47;;
15285;SDS011;7744;52.172;10.668;2023-02-01T10:02:11;9.03;;;2.30;;
15285;SDS011;7744;52.172;10.668;2023-02-01T10:04:49;6.90;;;2.20;;
15285;SDS011;7744;52.172;10.668;2023-02-01T10:10:04;7.50;;;2.03;;
15285;SDS011;7744;52.172;10.668;2023-02-01T10:23:43;9.20;;;2.27;;
15285;SDS011;7744;52.172;10.668;2023-02-01T10:26:32;9.40;;;3.03;;
15285;SDS011;7744;52.172;10.668;2023-02-01T10:29:02;9.27;;;2.83;;
15285;SDS011;7744;52.172;10.668;2023-02-01T10:31:35;9.20;;;2.43;;
15285;SDS011;7744;52.172;10.668;2023-02-01T10:34:18;8.50;;;2.63;;
15285;SDS011;7744;52.172;10.668;2023-02-01T10:37:13;7.13;;;2.50;;
15285;SDS011;7744;52.172;10.668;2023-02-01T10:39:49;7.30;;;3.23;;
15285;SDS011;7744;52.172;10.668;2023-02-01T10:42:17;13.73;;;3.13;;
15285;SDS011;7744;52.172;10.668;2023-02-01T10:44:45;10.20;;;2.53;;
15285;SDS011;7744;52.172;10.668;2023-02-01T10:47:13;10.30;;;2.87;;
15285;SDS011;7744;52.172;10.668;2023-02-01T10:49:45;14.20;;;3.33;;
15285;SDS011;7744;52.172;10.668;2023-02-01T10:52:25;10.10;;;2.57;;
15285;SDS011;7744;52.172;10.668;2023-02-01T10:55:25;8.60;;;2.30;;
15285;SDS011;7744;52.172;10.668;2023-02-01T10:58:01;9.37;;;3.27;;
15285;SDS011;7744;52.172;10.668;2023-02-01T11:01:03;13.17;;;2.70;;
15285;SDS011;7744;52.172;10.668;2023-02-01T11:03:30;8.83;;;2.70;;
15285;SDS011;7744;52.172;10.668;2023-02-01T11:05:57;10.27;;;2.50;;
15285;SDS011;7744;52.172;10.668;2023-02-01T11:08:23;10.87;;;2.63;;
15285;SDS011;7744;52.172;10.668;2023-02-01T11:10:56;9.53;;;3.40;;
15285;SDS011;7744;52.172;10.668;2023-02-01T11:13:27;9.57;;;2.37;;
15285;SDS011;7744;52.172;10.668;2023-02-01T11:15:58;6.43;;;2.07;;
15285;SDS011;7744;52.172;10.668;2023-02-01T11:18:28;11.73;;;2.67;;
15285;SDS011;7744;52.172;10.668;2023-02-01T11:20:56;12.60;;;2.70;;
15285;SDS011;7744;52.172;10.668;2023-02-01T11:23:24;8.70;;;2.40;;
15285;SDS011;7744;52.172;10.668;2023-02-01T11:25:53;8.43;;;2.77;;
15285;SDS011;7744;52.172;10.668;2023-02-01T11:28:26;10.23;;;2.63;;
15285;SDS011;7744;52.172;10.668;2023-02-01T11:30:56;6.40;;;2.37;;
15285;SDS011;7744;52.172;10.668;2023-02-01T11:33:26;10.93;;;2.50;;
15285;SDS011;7744;52.172;10.668;2023-02-01T11:35:55;8.70;;;2.00;;
15285;SDS011;7744;52.172;10.668;2023-02-01T11:38:27;8.03;;;2.40;;
15285;SDS011;7744;52.172;10.668;2023-02-01T11:41:40;9.37;;;2.43;;
15285;SDS011;7744;52.172;10.668;2023-02-01T11:43:51;11.37;;;2.33;;
15285;SDS011;7744;52.172;10.668;2023-02-01T11:46:23;9.27;;;2.57;;
15285;SDS011;7744;52.172;10.668;2023-02-01T11:48:53;12.30;;;2.43;;
15285;SDS011;7744;52.172;10.668;2023-02-01T11:59:58;8.87;;;2.43;;
15285;SDS011;7744;52.172;10.668;2023-02-01T12:05:17;8.57;;;2.00;;
15285;SDS011;7744;52.172;10.668;2023-02-01T12:07:52;9.53;;;2.10;;
15285;SDS011;7744;52.172;10.668;2023-02-01T12:29:27;9.27;;;2.10;;
15285;SDS011;7744;52.172;10.668;2023-02-01T12:45:30;9.57;;;2.37;;
15285;SDS011;7744;52.172;10.668;2023-02-01T12:48:06;9.80;;;2.07;;
15285;SDS011;7744;52.172;10.668;2023-02-01T12:50:51;7.10;;;2.13;;
15285;SDS011;7744;52.172;10.668;2023-02-01T12:53:25;10.00;;;2.33;;
15285;SDS011;7744;52.172;10.668;2023-02-01T12:55:57;11.53;;;2.03;;
15285;SDS011;7744;52.172;10.668;2023-02-01T12:58:38;8.00;;;2.20;;
15285;SDS011;7744;52.172;10.668;2023-02-01T13:01:06;9.77;;;2.93;;
15285;SDS011;7744;52.172;10.668;2023-02-01T13:03:41;8.30;;;2.17;;
15285;SDS011;7744;52.172;10.668;2023-02-01T13:06:37;6.50;;;2.10;;
15285;SDS011;7744;52.172;10.668;2023-02-01T13:11:53;9.40;;;2.70;;
15285;SDS011;7744;52.172;10.668;2023-02-01T13:17:10;9.57;;;2.53;;
15285;SDS011;7744;52.172;10.668;2023-02-01T13:19:49;6.80;;;2.10;;
15285;SDS011;7744;52.172;10.668;2023-02-01T13:22:36;12.43;;;2.30;;
15285;SDS011;7744;52.172;10.668;2023-02-01T13:27:41;7.60;;;2.10;;
15285;SDS011;7744;52.172;10.668;2023-02-01T13:38:05;6.57;;;2.03;;
15285;SDS011;7744;52.172;10.668;2023-02-01T13:43:26;8.30;;;2.13;;
15285;SDS011;7744;52.172;10.668;2023-02-01T13:45:57;8.53;;;2.40;;
15285;SDS011;7744;52.172;10.668;2023-02-01T13:48:35;6.00;;;1.80;;
15285;SDS011;7744;52.172;10.668;2023-02-01T13:51:06;5.40;;;2.03;;
15285;SDS011;7744;52.172;10.668;2023-02-01T13:53:34;6.93;;;2.30;;
15285;SDS011;7744;52.172;10.668;2023-02-01T13:58:44;6.23;;;2.30;;
15285;SDS011;7744;52.172;10.668;2023-02-01T14:03:55;6.23;;;2.10;;
15285;SDS011;7744;52.172;10.668;2023-02-01T14:19:20;3.10;;;1.63;;
15285;SDS011;7744;52.172;10.668;2023-02-01T14:21:57;1.90;;;1.10;;
15285;SDS011;7744;52.172;10.668;2023-02-01T14:24:32;3.47;;;1.27;;
15285;SDS011;7744;52.172;10.668;2023-02-01T14:27:01;3.00;;;2.30;;
15285;SDS011;7744;52.172;10.668;2023-02-01T14:29:52;3.37;;;1.17;;
15285;SDS011;7744;52.172;10.668;2023-02-01T14:32:34;2.50;;;0.70;;
15285;SDS011;7744;52.172;10.668;2023-02-01T14:35:05;0.97;;;0.53;;
15285;SDS011;7744;52.172;10.668;2023-02-01T14:37:37;1.80;;;0.67;;
15285;SDS011;7744;52.172;10.668;2023-02-01T14:42:47;1.30;;;0.47;;
15285;SDS011;7744;52.172;10.668;2023-02-01T14:59:12;2.57;;;1.00;;
15285;SDS011;7744;52.172;10.668;2023-02-01T15:04:08;2.83;;;0.63;;
15285;SDS011;7744;52.172;10.668;2023-02-01T15:06:56;2.97;;;0.90;;
15285;SDS011;7744;52.172;10.668;2023-02-01T15:09:27;2.83;;;0.60;;
15285;SDS011;7744;52.172;10.668;2023-02-01T15:12:05;2.20;;;1.37;;
15285;SDS011;7744;52.172;10.668;2023-02-01T15:25:27;1.53;;;0.50;;
15285;SDS011;7744;52.172;10.668;2023-02-01T15:28:00;1.17;;;0.40;;
15285;SDS011;7744;52.172;10.668;2023-02-01T15:30:30;2.17;;;0.60;;
15285;SDS011;7744;52.172;10.668;2023-02-01T15:35:43;1.37;;;0.70;;
15285;SDS011;7744;52.172;10.668;2023-02-01T15:41:02;2.57;;;0.80;;
15285;SDS011;7744;52.172;10.668;2023-02-01T15:43:42;1.67;;;0.57;;
15285;SDS011;7744;52.172;10.668;2023-02-01T15:46:19;2.30;;;0.90;;
15285;SDS011;7744;52.172;10.668;2023-02-01T15:48:48;3.33;;;0.80;;
15285;SDS011;7744;52.172;10.668;2023-02-01T15:51:19;1.93;;;0.70;;
15285;SDS011;7744;52.172;10.668;2023-02-01T15:53:51;3.63;;;1.13;;
15285;SDS011;7744;52.172;10.668;2023-02-01T15:56:21;4.83;;;1.57;;
15285;SDS011;7744;52.172;10.668;2023-02-01T15:58:50;2.80;;;1.03;;
15285;SDS011;7744;52.172;10.668;2023-02-01T16:01:18;2.27;;;0.90;;
15285;SDS011;7744;52.172;10.668;2023-02-01T16:03:45;2.10;;;0.80;;
15285;SDS011;7744;52.172;10.668;2023-02-01T16:08:52;3.43;;;1.10;;
15285;SDS011;7744;52.172;10.668;2023-02-01T16:11:25;3.63;;;1.10;;
15285;SDS011;7744;52.172;10.668;2023-02-01T16:13:52;2.03;;;0.87;;
15285;SDS011;7744;52.172;10.668;2023-02-01T16:16:17;4.60;;;1.53;;
15285;SDS011;7744;52.172;10.668;2023-02-01T16:18:43;2.10;;;0.83;;
15285;SDS011;7744;52.172;10.668;2023-02-01T16:21:09;2.63;;;1.00;;
15285;SDS011;7744;52.172;10.668;2023-02-01T16:23:35;5.37;;;1.20;;
15285;SDS011;7744;52.172;10.668;2023-02-01T16:26:02;3.47;;;1.10;;
15285;SDS011;7744;52.172;10.668;2023-02-01T16:28:28;2.03;;;1.10;;
15285;SDS011;7744;52.172;10.668;2023-02-01T16:30:54;4.37;;;1.50;;
15285;SDS011;7744;52.172;10.668;2023-02-01T16:33:20;4.60;;;1.50;;
15285;SDS011;7744;52.172;10.668;2023-02-01T16:35:50;3.07;;;1.10;;
15285;SDS011;7744;52.172;10.668;2023-02-01T16:38:16;6.22;;;1.70;;
15285;SDS011;7744;52.172;10.668;2023-02-01T16:40:46;8.77;;;1.60;;
15285;SDS011;7744;52.172;10.668;2023-02-01T16:43:14;4.57;;;1.40;;
15285;SDS011;7744;52.172;10.668;2023-02-01T16:45:47;5.40;;;1.83;;
15285;SDS011;7744;52.172;10.668;2023-02-01T16:48:36;5.25;;;1.58;;
15285;SDS011;7744;52.172;10.668;2023-02-01T16:51:08;10.48;;;5.68;;
15285;SDS011;7744;52.172;10.668;2023-02-01T16:53:36;7.83;;;3.40;;
15285;SDS011;7744;52.172;10.668;2023-02-01T16:56:04;7.32;;;3.00;;
15285;SDS011;7744;52.172;10.668;2023-02-01T16:58:37;6.63;;;2.60;;
15285;SDS011;7744;52.172;10.668;2023-02-01T17:01:06;6.03;;;2.77;;
15285;SDS011;7744;52.172;10.668;2023-02-01T17:03:33;8.77;;;3.20;;
15285;SDS011;7744;52.172;10.668;2023-02-01T17:05:58;7.70;;;2.90;;
15285;SDS011;7744;52.172;10.668;2023-02-01T17:08:28;4.67;;;2.37;;
15285;SDS011;7744;52.172;10.668;2023-02-01T17:10:59;8.93;;;2.95;;
15285;SDS011;7744;52.172;10.668;2023-02-01T17:13:24;6.93;;;2.57;;
15285;SDS011;7744;52.172;10.668;2023-02-01T17:15:56;7.07;;;1.90;;
15285;SDS011;7744;52.172;10.668;2023-02-01T17:18:24;10.13;;;2.10;;
15285;SDS011;7744;52.172;10.668;2023-02-01T17:20:55;11.47;;;1.80;;
15285;SDS011;7744;52.172;10.668;2023-02-01T17:23:22;7.60;;;2.10;;
15285;SDS011;7744;52.172;10.668;2023-02-01T17:25:48;8.00;;;2.10;;
15285;SDS011;7744;52.172;10.668;2023-02-01T17:28:13;9.07;;;2.77;;
15285;SDS011;7744;52.172;10.668;2023-02-01T17:30:39;7.90;;;2.40;;
15285;SDS011;7744;52.172;10.668;2023-02-01T17:33:09;6.47;;;2.20;;
15285;SDS011;7744;52.172;10.668;2023-02-01T17:35:57;10.10;;;2.23;;
15285;SDS011;7744;52.172;10.668;2023-02-01T17:38:23;7.80;;;1.83;;
15285;SDS011;7744;52.172;10.668;2023-02-01T17:40:49;6.87;;;3.03;;
15285;SDS011;7744;52.172;10.668;2023-02-01T17:43:16;6.97;;;2.13;;